Time;durP1;ratioP1;P1;durP2;ratioP2;P2;SDS_P1;SDS_P2;PMS_P1;PMS_P2;Temp;Humidity;BMP_temperature;BMP_pressure;BME280_temperature;BME280_humidity;BME280_pressure;Samples;Min_cycle;Max_cycle;Signal;HPM_P1;HPM_P2
2021/05/28 00:02:15;;;;;;;5.20;3.40;;;22.70;49.60;;;;;;5008588;28;20447;-82
2021/05/28 00:04:49;;;;;;;3.60;2.70;;;22.70;49.70;;;;;;5025901;28;20474;-82
2021/05/28 00:07:17;;;;;;;4.03;2.97;;;22.70;49.70;;;;;;5008710;28;20175;-82
2021/05/28 00:09:46;;;;;;;4.10;2.83;;;22.70;49.60;;;;;;5007837;28;20427;-81
2021/05/28 00:12:21;;;;;;;3.20;2.47;;;22.70;49.60;;;;;;5007028;28;20904;-82
2021/05/28 00:14:47;;;;;;;5.40;3.20;;;22.70;49.60;;;;;;5026110;28;20426;-82
2021/05/28 00:17:13;;;;;;;4.50;4.00;;;22.70;49.60;;;;;;5008341;28;20423;-82
2021/05/28 00:19:41;;;;;;;3.07;2.50;;;22.70;49.60;;;;;;5026241;28;20195;-82
2021/05/28 00:22:37;;;;;;;3.07;2.70;;;22.70;49.60;;;;;;5025962;28;20594;-81
2021/05/28 00:25:20;;;;;;;4.60;3.57;;;22.70;49.60;;;;;;5025995;28;20412;-82
2021/05/28 00:27:46;;;;;;;3.67;3.00;;;22.70;49.60;;;;;;5024847;28;20414;-82
2021/05/28 00:30:16;;;;;;;4.47;2.93;;;22.70;49.60;;;;;;5025955;28;20419;-82
2021/05/28 00:32:41;;;;;;;4.60;2.80;;;22.70;49.60;;;;;;5008829;28;20203;-82
2021/05/28 00:35:08;;;;;;;5.23;2.73;;;22.70;49.60;;;;;;5008074;28;20422;-82
2021/05/28 00:37:34;;;;;;;3.57;2.70;;;22.70;49.60;;;;;;5008517;28;20180;-82
2021/05/28 00:39:59;;;;;;;5.57;3.00;;;22.70;49.60;;;;;;5026321;28;20478;-82
2021/05/28 00:42:25;;;;;;;3.60;2.47;;;22.70;49.60;;;;;;5009122;28;20673;-82
2021/05/28 00:44:51;;;;;;;3.00;2.30;;;22.70;49.60;;;;;;5010493;28;20188;-82
2021/05/28 00:47:17;;;;;;;5.20;3.27;;;22.70;49.60;;;;;;5016042;28;20180;-80
2021/05/28 00:49:42;;;;;;;3.00;2.50;;;22.80;49.60;;;;;;5036654;28;20259;-80
2021/05/28 00:52:08;;;;;;;3.30;2.37;;;22.70;49.60;;;;;;5035448;28;20211;-80
2021/05/28 00:54:34;;;;;;;3.27;2.20;;;22.70;49.60;;;;;;5018660;28;20176;-80
2021/05/28 00:57:00;;;;;;;3.40;2.60;;;22.80;49.60;;;;;;5036862;28;20176;-79
2021/05/28 00:59:26;;;;;;;3.00;2.30;;;22.70;49.60;;;;;;5018982;28;20419;-81
2021/05/28 01:01:54;;;;;;;3.67;2.57;;;22.70;49.60;;;;;;5036771;28;20450;-81
2021/05/28 01:04:20;;;;;;;3.47;2.60;;;22.70;49.60;;;;;;5036975;28;20173;-81
2021/05/28 01:06:46;;;;;;;4.23;2.40;;;22.70;49.60;;;;;;5035222;28;20751;-80
2021/05/28 01:09:12;;;;;;;3.30;2.70;;;22.70;49.60;;;;;;5036155;28;20418;-80
2021/05/28 01:11:38;;;;;;;4.37;2.50;;;22.70;49.60;;;;;;5018388;28;20474;-80
2021/05/28 01:14:05;;;;;;;5.17;3.17;;;22.70;49.70;;;;;;5036304;28;20172;-80
2021/05/28 01:16:34;;;;;;;5.87;2.60;;;22.70;49.80;;;;;;5018663;28;20419;-80
2021/05/28 01:19:00;;;;;;;3.40;1.97;;;22.60;49.80;;;;;;5036112;28;20411;-80
2021/05/28 01:21:27;;;;;;;4.10;2.73;;;22.60;49.80;;;;;;5036073;28;20426;-80
2021/05/28 01:23:53;;;;;;;4.50;2.60;;;22.60;50.50;;;;;;5036101;28;20419;-80
2021/05/28 01:26:19;;;;;;;2.90;2.37;;;22.60;49.90;;;;;;5036148;28;20415;-80
2021/05/28 01:28:45;;;;;;;3.10;2.50;;;22.60;49.90;;;;;;5018691;28;20426;-81
2021/05/28 01:31:11;;;;;;;3.77;2.60;;;22.60;49.90;;;;;;5035938;28;20231;-80
2021/05/28 01:33:42;;;;;;;6.17;3.00;;;22.60;49.90;;;;;;5035336;28;20459;-81
2021/05/28 01:36:08;;;;;;;3.63;3.13;;;22.60;49.90;;;;;;5035614;28;20168;-81
2021/05/28 01:38:35;;;;;;;5.67;3.23;;;22.60;50.00;;;;;;5018387;28;20415;-80
2021/05/28 01:41:02;;;;;;;4.20;2.50;;;22.60;50.00;;;;;;5018921;28;20415;-80
2021/05/28 01:43:28;;;;;;;4.50;2.40;;;22.60;50.00;;;;;;5035974;28;20415;-81
2021/05/28 01:45:54;;;;;;;2.67;2.20;;;22.60;50.00;;;;;;5019375;28;20430;-80
2021/05/28 01:48:22;;;;;;;3.10;2.57;;;22.50;49.90;;;;;;5036539;28;20478;-81
2021/05/28 01:50:48;;;;;;;3.37;2.50;;;22.60;50.00;;;;;;5036118;28;20669;-81
2021/05/28 01:53:22;;;;;;;3.07;2.20;;;22.50;50.00;;;;;;5035716;28;20462;-81
2021/05/28 01:55:49;;;;;;;2.80;2.27;;;22.50;50.00;;;;;;5018598;28;20168;-81
2021/05/28 01:58:18;;;;;;;4.07;2.93;;;22.50;50.00;;;;;;5018938;28;20411;-81
2021/05/28 02:00:47;;;;;;;5.07;3.40;;;22.50;50.00;;;;;;5018986;28;20438;-81
2021/05/28 02:03:14;;;;;;;3.40;2.47;;;22.50;50.00;;;;;;5035622;28;20430;-81
2021/05/28 02:05:40;;;;;;;3.03;2.13;;;22.50;50.00;;;;;;5036157;28;20407;-80
2021/05/28 02:08:06;;;;;;;3.73;2.70;;;22.50;50.00;;;;;;5017949;28;20415;-80
2021/05/28 02:10:32;;;;;;;3.37;2.20;;;22.50;50.00;;;;;;5035781;28;20180;-81
2021/05/28 02:12:58;;;;;;;3.40;2.50;;;22.50;50.00;;;;;;5035801;28;20479;-81
2021/05/28 02:15:25;;;;;;;3.50;2.13;;;22.50;50.00;;;;;;5018411;28;20482;-81
2021/05/28 02:17:52;;;;;;;3.20;2.30;;;22.50;50.00;;;;;;5035194;28;20411;-81
2021/05/28 02:20:17;;;;;;;4.20;2.70;;;22.50;50.00;;;;;;5018287;28;20451;-81
2021/05/28 02:22:43;;;;;;;4.10;2.50;;;22.50;50.00;;;;;;5018014;28;20930;-81
2021/05/28 02:25:10;;;;;;;4.43;2.73;;;22.50;50.00;;;;;;5017679;28;20428;-81
2021/05/28 02:27:36;;;;;;;5.00;2.80;;;22.50;50.00;;;;;;5035053;28;20176;-81
2021/05/28 02:30:03;;;;;;;2.27;2.03;;;22.50;50.00;;;;;;5035926;28;20439;-81
2021/05/28 02:32:29;;;;;;;3.53;2.40;;;22.40;49.90;;;;;;5017245;28;20814;-81
2021/05/28 02:34:57;;;;;;;2.83;2.03;;;22.40;50.00;;;;;;5017568;28;20427;-81
2021/05/28 02:37:23;;;;;;;2.83;2.00;;;22.40;50.00;;;;;;5017061;28;20172;-81
2021/05/28 02:39:49;;;;;;;2.43;2.10;;;22.40;50.00;;;;;;5035155;28;20418;-81
2021/05/28 02:42:15;;;;;;;2.87;2.17;;;22.40;50.00;;;;;;5033395;28;20256;-81
2021/05/28 02:44:41;;;;;;;2.53;2.23;;;22.40;50.00;;;;;;5035478;28;20172;-81
2021/05/28 02:47:08;;;;;;;4.33;2.30;;;22.40;50.00;;;;;;5034609;28;20450;-80
2021/05/28 02:49:35;;;;;;;2.43;2.20;;;22.40;50.00;;;;;;5034610;28;20443;-81
2021/05/28 02:52:01;;;;;;;3.27;2.43;;;22.40;50.00;;;;;;5035616;28;20473;-81
2021/05/28 02:54:27;;;;;;;2.67;2.20;;;22.40;50.00;;;;;;5018181;28;20419;-80
2021/05/28 02:56:54;;;;;;;3.50;2.10;;;22.40;50.00;;;;;;5034190;28;20247;-81
2021/05/28 02:59:19;;;;;;;4.27;2.27;;;22.40;50.00;;;;;;5018335;28;20511;-81
2021/05/28 03:01:45;;;;;;;3.67;2.50;;;22.40;50.00;;;;;;5018229;28;20436;-80
2021/05/28 03:04:11;;;;;;;2.60;2.10;;;22.40;50.00;;;;;;5035426;28;20184;-81
2021/05/28 03:06:37;;;;;;;2.00;1.80;;;22.40;50.00;;;;;;5017348;28;20161;-81
2021/05/28 03:09:03;;;;;;;3.23;2.10;;;22.40;50.00;;;;;;5017040;28;20211;-81
2021/05/28 03:11:29;;;;;;;3.30;2.20;;;22.40;50.00;;;;;;5017477;28;20226;-81
2021/05/28 03:13:55;;;;;;;3.50;2.17;;;22.40;50.00;;;;;;5016912;28;20435;-81
2021/05/28 03:16:23;;;;;;;2.70;2.27;;;22.40;50.10;;;;;;5017456;28;20422;-81
2021/05/28 03:18:55;;;;;;;2.30;2.10;;;22.40;50.10;;;;;;5017270;28;20211;-81
2021/05/28 03:23:59;;;;;;;3.23;2.03;;;22.40;50.00;;;;;;5034662;28;20395;-81
2021/05/28 03:26:26;;;;;;;3.10;2.33;;;22.40;50.10;;;;;;5033217;28;20427;-81
2021/05/28 03:28:53;;;;;;;2.50;1.83;;;22.40;50.10;;;;;;5017187;28;20423;-81
2021/05/28 03:31:20;;;;;;;2.47;2.07;;;22.40;50.10;;;;;;5017372;28;20438;-80
2021/05/28 03:33:46;;;;;;;3.03;2.03;;;22.40;50.10;;;;;;5016474;28;20484;-81
2021/05/28 03:36:15;;;;;;;3.00;2.43;;;22.40;50.10;;;;;;5016374;28;20415;-80
2021/05/28 03:38:41;;;;;;;2.70;2.10;;;22.40;50.10;;;;;;5032661;28;20495;-80
2021/05/28 03:41:06;;;;;;;3.17;2.17;;;22.40;50.10;;;;;;5033295;28;20414;-81
2021/05/28 03:43:34;;;;;;;2.53;2.00;;;22.40;50.10;;;;;;5016075;28;20415;-80
2021/05/28 03:46:00;;;;;;;3.30;2.20;;;22.40;50.10;;;;;;5016805;28;20176;-81
2021/05/28 03:48:26;;;;;;;2.83;2.00;;;22.40;50.20;;;;;;5000051;28;20426;-81
2021/05/28 03:50:52;;;;;;;2.40;1.83;;;22.40;50.20;;;;;;5033141;28;20917;-81
2021/05/28 03:53:18;;;;;;;3.80;2.10;;;22.40;50.20;;;;;;5032335;28;20213;-81
2021/05/28 03:55:43;;;;;;;3.50;2.27;;;22.30;50.10;;;;;;5015247;28;20180;-81
2021/05/28 03:58:11;;;;;;;3.73;2.20;;;22.40;50.20;;;;;;5033632;28;20272;-81
2021/05/28 04:00:37;;;;;;;2.73;1.93;;;22.30;50.10;;;;;;5033761;28;20411;-85
2021/05/28 04:03:03;;;;;;;1.67;1.57;;;22.30;50.10;;;;;;5033206;28;20180;-81
2021/05/28 04:05:29;;;;;;;2.20;1.83;;;22.30;50.20;;;;;;5033591;28;20423;-81
2021/05/28 04:07:55;;;;;;;2.40;2.00;;;22.40;50.20;;;;;;5033521;28;20434;-80
2021/05/28 04:10:21;;;;;;;2.53;2.13;;;22.30;50.10;;;;;;5016212;28;20446;-81
2021/05/28 04:12:46;;;;;;;2.73;1.77;;;22.30;50.20;;;;;;5033231;28;20200;-80
2021/05/28 04:15:14;;;;;;;2.20;1.80;;;22.30;50.20;;;;;;5033289;28;20535;-80
2021/05/28 04:17:40;;;;;;;2.63;1.90;;;22.30;50.20;;;;;;5015472;28;20176;-81
2021/05/28 04:20:06;;;;;;;2.20;1.67;;;22.30;50.20;;;;;;5033485;28;20407;-81
2021/05/28 04:22:32;;;;;;;2.60;1.90;;;22.30;50.10;;;;;;5033670;28;20219;-81
2021/05/28 04:24:58;;;;;;;2.00;1.60;;;22.30;50.20;;;;;;5032479;28;20434;-81
2021/05/28 04:27:24;;;;;;;3.83;1.70;;;22.30;50.20;;;;;;5033251;28;20407;-81
2021/05/28 04:29:50;;;;;;;2.30;1.90;;;22.30;50.20;;;;;;5031652;28;20172;-81
2021/05/28 04:32:16;;;;;;;3.20;1.90;;;22.30;50.20;;;;;;5032940;28;20259;-81
2021/05/28 04:34:43;;;;;;;3.43;2.17;;;22.30;50.10;;;;;;5032925;28;20199;-81
2021/05/28 04:37:09;;;;;;;2.73;1.93;;;22.30;50.10;;;;;;5033363;28;20411;-81
2021/05/28 04:39:35;;;;;;;2.23;1.90;;;22.30;50.10;;;;;;5033711;28;20449;-81
2021/05/28 04:42:01;;;;;;;2.50;2.03;;;22.30;50.10;;;;;;5033087;28;20411;-81
2021/05/28 04:44:27;;;;;;;2.60;2.10;;;22.30;50.00;;;;;;5015756;28;20188;-80
2021/05/28 04:46:53;;;;;;;3.20;2.30;;;22.40;50.10;;;;;;5015236;28;20632;-81
2021/05/28 04:49:19;;;;;;;2.70;1.90;;;22.40;50.00;;;;;;5015975;28;20211;-80
2021/05/28 04:51:45;;;;;;;2.90;2.20;;;22.40;50.00;;;;;;5033271;28;20482;-79
2021/05/28 04:54:11;;;;;;;2.00;1.63;;;22.40;50.00;;;;;;5033343;28;20175;-79
2021/05/28 04:59:59;;;;;;;2.00;1.80;;;22.40;49.90;;;;;;5033182;28;20226;-80
2021/05/28 05:02:24;;;;;;;2.53;2.00;;;22.40;50.00;;;;;;5015398;28;20426;-81
2021/05/28 05:04:50;;;;;;;3.30;1.90;;;22.40;50.00;;;;;;5015941;28;20184;-79
2021/05/28 05:07:16;;;;;;;2.63;1.77;;;22.40;49.90;;;;;;5032750;28;20191;-80
2021/05/28 05:09:45;;;;;;;2.47;1.80;;;22.40;49.90;;;;;;5016207;28;20199;-81
2021/05/28 05:12:10;;;;;;;2.67;2.47;;;22.50;50.00;;;;;;5033241;28;20211;-81
2021/05/28 05:14:36;;;;;;;2.57;1.80;;;22.50;50.00;;;;;;5015598;28;20443;-81
2021/05/28 05:17:02;;;;;;;1.70;1.60;;;22.50;49.90;;;;;;5032692;28;20232;-81
2021/05/28 05:19:28;;;;;;;2.87;2.00;;;22.50;49.90;;;;;;5032989;28;20643;-81
2021/05/28 05:21:53;;;;;;;2.17;1.77;;;22.50;49.90;;;;;;5015307;28;20737;-81
2021/05/28 05:24:19;;;;;;;3.37;2.10;;;22.50;49.90;;;;;;5015489;28;20180;-81
2021/05/28 05:26:45;;;;;;;2.23;1.63;;;22.50;49.90;;;;;;5031828;28;20196;-80
2021/05/28 05:29:11;;;;;;;1.97;1.70;;;22.50;49.90;;;;;;5015488;28;20180;-81
2021/05/28 05:31:39;;;;;;;2.30;1.70;;;22.50;49.90;;;;;;5019187;28;20431;-81
2021/05/28 05:34:05;;;;;;;3.10;1.83;;;22.50;49.90;;;;;;5019165;28;20176;-80
2021/05/28 05:36:35;;;;;;;2.10;1.73;;;22.60;49.90;;;;;;5019027;28;20419;-81
2021/05/28 05:39:01;;;;;;;2.03;1.80;;;22.50;49.90;;;;;;5019329;28;20171;-80
2021/05/28 05:41:27;;;;;;;2.10;1.83;;;22.50;49.90;;;;;;5020322;28;20399;-80
2021/05/28 05:43:53;;;;;;;2.13;1.80;;;22.50;49.90;;;;;;5037569;28;20422;-80
2021/05/28 05:46:19;;;;;;;1.80;1.33;;;22.50;49.90;;;;;;5019160;28;20176;-81
2021/05/28 05:48:45;;;;;;;2.53;1.70;;;22.50;49.90;;;;;;5019658;28;20172;-81
2021/05/28 05:51:10;;;;;;;2.13;1.50;;;22.50;50.40;;;;;;5037148;28;20423;-81
2021/05/28 05:53:36;;;;;;;1.67;1.50;;;22.50;49.90;;;;;;5019521;28;20200;-81
2021/05/28 05:56:02;;;;;;;3.30;1.93;;;22.50;49.90;;;;;;5037395;28;20169;-81
2021/05/28 05:58:28;;;;;;;1.77;1.53;;;22.50;49.90;;;;;;5036519;28;20180;-81
2021/05/28 06:00:54;;;;;;;2.60;2.07;;;22.50;49.90;;;;;;5018584;28;20419;-80
2021/05/28 06:03:19;;;;;;;2.17;1.40;;;22.60;49.90;;;;;;5036479;28;20600;-80
2021/05/28 06:05:45;;;;;;;1.70;1.60;;;22.50;49.80;;;;;;5035359;28;20203;-81
2021/05/28 06:08:11;;;;;;;2.37;1.63;;;22.50;49.80;;;;;;5018666;28;20180;-81
2021/05/28 06:10:37;;;;;;;2.13;1.50;;;22.50;49.80;;;;;;5034860;28;20673;-80
2021/05/28 06:13:04;;;;;;;3.23;1.97;;;22.60;49.90;;;;;;5018407;28;20271;-80
2021/05/28 06:15:34;;;;;;;2.67;2.33;;;22.60;49.90;;;;;;5018768;28;20196;-81
2021/05/28 06:18:00;;;;;;;1.93;1.73;;;22.60;49.80;;;;;;5035527;28;20433;-81
2021/05/28 06:20:26;;;;;;;1.77;1.57;;;22.60;49.90;;;;;;5018463;28;20849;-80
2021/05/28 06:22:52;;;;;;;2.10;1.47;;;22.60;49.80;;;;;;5035457;28;20407;-81
2021/05/28 06:25:20;;;;;;;2.90;2.10;;;22.60;49.80;;;;;;5034425;28;20433;-81
2021/05/28 06:27:46;;;;;;;2.00;1.67;;;22.60;49.80;;;;;;5018162;28;20419;-80
2021/05/28 06:30:13;;;;;;;2.57;1.50;;;22.60;49.80;;;;;;5035223;28;20407;-81
2021/05/28 06:32:41;;;;;;;1.60;1.50;;;22.60;49.80;;;;;;5035639;28;20201;-80
2021/05/28 06:35:07;;;;;;;3.80;2.00;;;22.60;49.80;;;;;;5035889;28;20396;-80
2021/05/28 06:37:33;;;;;;;2.70;2.10;;;22.60;49.80;;;;;;5018306;28;20415;-80
2021/05/28 06:39:59;;;;;;;1.80;1.40;;;22.60;49.80;;;;;;5035526;28;20434;-80
2021/05/28 06:42:25;;;;;;;1.93;1.70;;;22.60;49.80;;;;;;5033457;28;20180;-81
2021/05/28 06:44:50;;;;;;;2.00;1.77;;;22.60;49.80;;;;;;5017513;28;20176;-81
2021/05/28 06:47:17;;;;;;;2.57;1.80;;;22.70;49.90;;;;;;5016764;28;20200;-84
2021/05/28 06:49:43;;;;;;;2.13;1.50;;;22.60;49.80;;;;;;5034945;28;20179;-81
2021/05/28 06:52:10;;;;;;;2.30;1.60;;;22.70;49.90;;;;;;5034424;28;20462;-81
2021/05/28 06:54:36;;;;;;;2.00;1.63;;;22.70;49.90;;;;;;5034250;28;20408;-81
2021/05/28 06:57:02;;;;;;;2.37;1.80;;;22.70;49.90;;;;;;5034445;28;20418;-81
2021/05/28 06:59:29;;;;;;;2.03;1.83;;;22.70;49.90;;;;;;5016693;28;20490;-81
2021/05/28 07:01:55;;;;;;;1.70;1.23;;;22.70;49.90;;;;;;5017344;28;20458;-81
2021/05/28 07:07:42;;;;;;;1.50;1.33;;;22.70;49.80;;;;;;4994227;28;20415;-80
2021/05/28 07:10:12;;;;;;;2.57;1.80;;;22.70;50.00;;;;;;4993884;28;20417;-81
2021/05/28 07:12:37;;;;;;;2.07;1.87;;;22.70;49.90;;;;;;4993396;28;20209;-81
2021/05/28 07:15:07;;;;;;;3.60;1.97;;;22.70;50.00;;;;;;4994380;28;20488;-81
2021/05/28 07:17:34;;;;;;;3.77;2.10;;;22.70;50.00;;;;;;4994065;28;20193;-81
2021/05/28 07:20:01;;;;;;;3.73;2.27;;;22.70;50.00;;;;;;4994412;28;20444;-80
2021/05/28 07:22:27;;;;;;;2.53;1.97;;;22.70;49.90;;;;;;4993150;28;20433;-81
2021/05/28 07:24:53;;;;;;;2.40;2.20;;;22.70;49.80;;;;;;4994628;28;20423;-83
2021/05/28 07:27:19;;;;;;;2.90;2.00;;;22.70;49.80;;;;;;4992928;28;20496;-81
2021/05/28 07:29:45;;;;;;;1.93;1.67;;;22.70;49.80;;;;;;4992907;28;20424;-83
2021/05/28 07:32:11;;;;;;;2.30;1.90;;;22.70;49.90;;;;;;4992663;28;20269;-83
2021/05/28 07:34:39;;;;;;;2.50;2.30;;;22.70;49.80;;;;;;4991595;28;20202;-83
2021/05/28 07:37:05;;;;;;;2.80;1.93;;;22.70;49.70;;;;;;4992054;28;20428;-83
2021/05/28 07:39:31;;;;;;;2.97;2.00;;;22.70;49.60;;;;;;4992275;28;20421;-83
2021/05/28 07:42:00;;;;;;;2.37;1.97;;;22.70;49.60;;;;;;4991609;28;20409;-83
2021/05/28 07:44:26;;;;;;;5.43;2.43;;;22.70;49.50;;;;;;4991649;28;20436;-83
2021/05/28 07:46:52;;;;;;;2.83;1.70;;;22.70;49.50;;;;;;4991172;28;20429;-84
2021/05/28 07:49:27;;;;;;;2.73;2.10;;;22.70;49.50;;;;;;4992383;28;20452;-85
2021/05/28 07:51:53;;;;;;;3.03;1.87;;;22.70;49.40;;;;;;4991639;28;20473;-83
2021/05/28 07:54:19;;;;;;;4.10;2.30;;;22.70;49.40;;;;;;4991845;28;20444;-83
2021/05/28 07:56:45;;;;;;;5.10;2.10;;;22.70;49.30;;;;;;4991900;28;20190;-83
2021/05/28 07:59:10;;;;;;;2.67;1.97;;;22.70;49.20;;;;;;4990151;28;20189;-83
2021/05/28 08:01:36;;;;;;;3.37;2.00;;;22.70;49.10;;;;;;4991389;28;20177;-83
2021/05/28 08:04:02;;;;;;;2.20;2.00;;;22.70;49.10;;;;;;4990344;28;20268;-84
2021/05/28 08:06:28;;;;;;;2.83;2.10;;;22.70;49.00;;;;;;4990116;28;20250;-84
2021/05/28 08:08:54;;;;;;;2.27;2.03;;;22.70;49.00;;;;;;4990066;28;20417;-83
2021/05/28 08:11:21;;;;;;;1.87;1.70;;;22.70;49.00;;;;;;4990723;28;20181;-83
2021/05/28 08:13:47;;;;;;;2.57;1.83;;;22.70;49.00;;;;;;4990143;28;20460;-83
2021/05/28 08:16:14;;;;;;;2.00;1.70;;;22.70;49.00;;;;;;4990550;28;20958;-83
2021/05/28 08:18:40;;;;;;;3.60;2.23;;;22.70;49.10;;;;;;4989952;28;20417;-83
2021/05/28 08:21:06;;;;;;;2.60;1.87;;;22.70;49.10;;;;;;4991088;28;20413;-83
2021/05/28 08:23:32;;;;;;;4.00;2.40;;;22.70;49.10;;;;;;4991119;28;20564;-83
2021/05/28 08:26:01;;;;;;;7.57;4.30;;;22.70;49.20;;;;;;4992057;28;20417;-83
2021/05/28 08:28:27;;;;;;;7.70;5.10;;;22.70;49.20;;;;;;4992081;28;20409;-83
2021/05/28 08:30:53;;;;;;;13.37;9.33;;;22.70;49.30;;;;;;4992121;28;20405;-83
2021/05/28 08:33:19;;;;;;;16.27;10.67;;;22.70;49.40;;;;;;4991278;28;20456;-83
2021/05/28 08:35:45;;;;;;;12.47;8.50;;;22.70;49.40;;;;;;4991460;28;20209;-83
2021/05/28 08:38:11;;;;;;;26.90;15.40;;;22.70;49.40;;;;;;4991409;28;20170;-83
2021/05/28 08:40:38;;;;;;;31.20;18.60;;;22.70;49.50;;;;;;4990660;28;20365;-83
2021/05/28 08:43:06;;;;;;;31.40;16.90;;;22.70;49.50;;;;;;4990827;28;20435;-83
2021/05/28 08:45:37;;;;;;;30.17;17.70;;;22.70;49.50;;;;;;4990992;28;20436;-83
2021/05/28 08:48:05;;;;;;;25.53;14.43;;;22.70;49.50;;;;;;4991402;28;20475;-83
2021/05/28 08:50:31;;;;;;;25.17;15.53;;;22.70;49.50;;;;;;4990573;28;20457;-83
2021/05/28 08:53:04;;;;;;;30.03;16.07;;;22.70;49.50;;;;;;4991787;28;20460;-83
2021/05/28 08:55:31;;;;;;;30.73;16.00;;;22.70;49.50;;;;;;4991968;28;20393;-83
2021/05/28 08:57:58;;;;;;;31.20;18.80;;;22.70;49.60;;;;;;4990731;28;20413;-83
2021/05/28 09:00:26;;;;;;;26.37;17.30;;;22.70;49.60;;;;;;4990016;28;20450;-83
2021/05/28 09:02:54;;;;;;;26.53;16.37;;;22.70;49.60;;;;;;4990266;28;20437;-83
2021/05/28 09:05:24;;;;;;;28.43;18.03;;;22.70;49.60;;;;;;4991425;28;20421;-83
2021/05/28 09:07:55;;;;;;;34.13;16.90;;;22.70;49.50;;;;;;4993373;28;20421;-84
2021/05/28 09:10:41;;;;;;;32.43;18.97;;;22.70;49.60;;;;;;4993646;28;20837;-84
2021/05/28 09:13:07;;;;;;;30.03;18.17;;;22.70;49.50;;;;;;4993071;28;20531;-84
2021/05/28 09:15:33;;;;;;;32.97;19.37;;;22.70;49.60;;;;;;4993639;28;20527;-84
2021/05/28 09:17:59;;;;;;;30.67;18.43;;;22.70;49.50;;;;;;4993948;28;20435;-84
2021/05/28 09:20:24;;;;;;;37.17;21.87;;;22.70;49.50;;;;;;4993947;28;20432;-84
2021/05/28 09:23:08;;;;;;;35.73;20.77;;;22.70;49.60;;;;;;4976753;28;20185;-84
2021/05/28 09:26:01;;;;;;;28.63;17.70;;;22.80;49.60;;;;;;4992545;28;20177;-84
2021/05/28 09:28:56;;;;;;;29.03;17.77;;;22.80;49.60;;;;;;4993150;28;20432;-83
2021/05/28 09:31:35;;;;;;;25.43;16.27;;;22.80;49.60;;;;;;4993897;28;20429;-83
2021/05/28 09:34:02;;;;;;;32.93;19.20;;;22.80;49.70;;;;;;4995197;28;20390;-83
2021/05/28 09:36:35;;;;;;;34.20;17.83;;;22.70;49.60;;;;;;4994873;28;20407;-83
2021/05/28 09:39:08;;;;;;;32.67;19.13;;;22.70;49.60;;;;;;4993237;28;20413;-83
2021/05/28 09:41:45;;;;;;;30.40;18.90;;;22.70;49.60;;;;;;4993884;28;20405;-83
2021/05/28 09:44:15;;;;;;;30.37;20.17;;;22.80;49.70;;;;;;4993696;28;20404;-83
2021/05/28 09:47:07;;;;;;;31.30;17.50;;;22.70;49.60;;;;;;4994939;28;20413;-83
2021/05/28 09:49:44;;;;;;;34.63;19.97;;;22.80;49.70;;;;;;4992695;28;20694;-83
2021/05/28 09:52:20;;;;;;;32.47;20.50;;;22.70;49.70;;;;;;4993694;28;20506;-83
2021/05/28 09:54:58;;;;;;;39.67;19.90;;;22.70;49.70;;;;;;4993052;28;20416;-83
2021/05/28 09:57:48;;;;;;;34.90;20.70;;;22.70;49.70;;;;;;4993345;28;20409;-83
2021/05/28 10:00:26;;;;;;;38.40;21.63;;;22.70;49.60;;;;;;4992557;28;20424;-83
2021/05/28 10:03:23;;;;;;;29.60;18.77;;;22.70;49.70;;;;;;4994398;28;20417;-83
2021/05/28 10:05:58;;;;;;;28.30;17.90;;;22.90;49.90;;;;;;4993382;28;20397;-82
2021/05/28 10:08:26;;;;;;;30.27;19.40;;;22.70;49.70;;;;;;4992613;28;20432;-81
2021/05/28 10:10:53;;;;;;;25.73;17.37;;;22.70;49.70;;;;;;4993594;28;20413;-81
2021/05/28 10:13:21;;;;;;;29.40;18.00;;;22.70;49.70;;;;;;4992888;28;20457;-82
2021/05/28 10:15:55;;;;;;;31.93;19.67;;;22.70;49.70;;;;;;4991987;28;20457;-82
2021/05/28 10:18:22;;;;;;;34.77;17.40;;;22.80;49.80;;;;;;4992904;28;20416;-82
2021/05/28 10:20:53;;;;;;;28.23;17.23;;;22.70;49.70;;;;;;4992602;28;20445;-82
2021/05/28 10:23:19;;;;;;;25.87;18.90;;;22.80;49.80;;;;;;4994003;28;20409;-82
2021/05/28 10:25:46;;;;;;;34.77;19.23;;;22.70;49.70;;;;;;4976335;28;20436;-82
2021/05/28 10:28:20;;;;;;;29.13;17.40;;;22.80;49.80;;;;;;4993568;28;20425;-82
2021/05/28 10:30:48;;;;;;;32.90;17.53;;;22.80;49.80;;;;;;4992719;28;20977;-82
2021/05/28 10:33:27;;;;;;;34.57;18.90;;;22.80;49.80;;;;;;4992871;28;20468;-82
2021/05/28 10:35:56;;;;;;;37.57;17.10;;;22.80;49.80;;;;;;4991322;28;20441;-82
2021/05/28 10:38:31;;;;;;;27.97;16.57;;;22.80;49.80;;;;;;4992499;28;20516;-82
2021/05/28 10:41:00;;;;;;;25.40;15.87;;;22.80;49.80;;;;;;4992443;28;20425;-81
2021/05/28 10:43:27;;;;;;;26.40;17.33;;;22.80;49.80;;;;;;4992683;28;20429;-82
2021/05/28 10:46:05;;;;;;;30.20;16.90;;;22.80;49.80;;;;;;4992695;28;20932;-82
2021/05/28 10:51:31;;;;;;;27.00;17.00;;;22.80;49.80;;;;;;4993606;28;20421;-82
2021/05/28 10:53:57;;;;;;;27.80;16.97;;;22.80;49.80;;;;;;4991860;28;20429;-82
2021/05/28 10:56:36;;;;;;;24.53;16.87;;;22.80;49.90;;;;;;4992403;28;20417;-82
2021/05/28 10:59:14;;;;;;;25.33;17.80;;;22.80;49.80;;;;;;4992230;28;20572;-82
2021/05/28 11:01:58;;;;;;;24.50;16.50;;;22.80;49.80;;;;;;4992291;28;20413;-81
2021/05/28 11:04:44;;;;;;;25.73;16.67;;;22.90;49.90;;;;;;4992010;28;20393;-82
2021/05/28 11:07:09;;;;;;;23.50;16.03;;;22.80;49.80;;;;;;4992369;28;20417;-82
2021/05/28 11:09:47;;;;;;;32.80;16.90;;;22.80;49.80;;;;;;4991990;28;20417;-82
2021/05/28 11:12:13;;;;;;;27.47;17.90;;;22.80;49.80;;;;;;4992902;28;20201;-82
2021/05/28 11:15:01;;;;;;;25.40;15.43;;;22.80;49.80;;;;;;4992047;28;20421;-82
2021/05/28 11:17:28;;;;;;;28.90;16.00;;;22.80;49.80;;;;;;4992802;28;20417;-82
2021/05/28 11:19:57;;;;;;;22.93;16.10;;;22.80;49.80;;;;;;4992353;28;20433;-82
2021/05/28 11:22:30;;;;;;;32.73;17.50;;;22.80;49.80;;;;;;4992317;28;20418;-82
2021/05/28 11:24:59;;;;;;;26.50;16.57;;;22.80;49.80;;;;;;4992059;28;20436;-82
2021/05/28 11:27:24;;;;;;;24.70;14.83;;;22.80;50.40;;;;;;4989209;28;20927;-84
2021/05/28 11:29:55;;;;;;;25.30;15.83;;;22.80;49.80;;;;;;4988253;28;20491;-84
2021/05/28 11:32:36;;;;;;;23.80;14.17;;;22.80;49.80;;;;;;4988524;28;20206;-84
2021/05/28 11:35:29;;;;;;;29.43;16.60;;;22.80;50.50;;;;;;4989108;28;20424;-84
2021/05/28 11:38:04;;;;;;;24.93;15.80;;;22.80;49.90;;;;;;4989736;28;20405;-83
2021/05/28 11:40:38;;;;;;;23.33;14.43;;;22.80;49.90;;;;;;4989921;28;20425;-84
2021/05/28 11:43:17;;;;;;;25.50;15.57;;;22.80;49.90;;;;;;4990081;28;20492;-84
2021/05/28 11:45:54;;;;;;;27.40;16.20;;;22.80;49.90;;;;;;4989597;28;20428;-84
2021/05/28 11:48:24;;;;;;;21.80;14.07;;;22.80;49.90;;;;;;4989559;28;20499;-84
2021/05/28 11:50:56;;;;;;;21.23;13.60;;;22.80;49.90;;;;;;4990730;28;20413;-84
2021/05/28 11:53:23;;;;;;;25.07;14.03;;;22.80;49.90;;;;;;4989339;28;20449;-84
2021/05/28 11:55:54;;;;;;;22.27;14.40;;;22.80;49.90;;;;;;4990369;28;20417;-84
2021/05/28 11:58:21;;;;;;;19.40;13.63;;;22.80;49.90;;;;;;4990661;28;20436;-84
2021/05/28 12:00:49;;;;;;;24.03;15.10;;;22.80;50.00;;;;;;4989684;28;20915;-84
2021/05/28 12:03:16;;;;;;;26.87;15.53;;;22.80;50.00;;;;;;4988982;28;20517;-83
2021/05/28 12:06:01;;;;;;;23.10;14.67;;;22.80;50.00;;;;;;4989227;28;20468;-84
2021/05/28 12:08:29;;;;;;;20.53;14.00;;;22.80;50.00;;;;;;4990040;28;20401;-84
2021/05/28 12:10:58;;;;;;;18.97;13.73;;;22.80;50.00;;;;;;4988439;28;20427;-83
2021/05/28 12:13:50;;;;;;;27.57;15.50;;;22.80;50.00;;;;;;4989363;28;20522;-84
2021/05/28 12:16:21;;;;;;;22.93;12.93;;;22.80;49.90;;;;;;4989683;28;20436;-83
2021/05/28 12:19:00;;;;;;;19.60;12.47;;;22.80;49.90;;;;;;4989544;28;20563;-85
2021/05/28 12:21:26;;;;;;;23.00;13.27;;;22.80;49.90;;;;;;4988924;28;20499;-85
2021/05/28 12:24:15;;;;;;;26.63;14.57;;;22.80;50.00;;;;;;4988266;28;20472;-85
2021/05/28 12:26:40;;;;;;;15.57;10.33;;;22.80;49.90;;;;;;4987870;28;20428;-85
2021/05/28 12:29:12;;;;;;;25.53;17.00;;;22.80;49.90;;;;;;4988237;28;20429;-85
2021/05/28 12:31:41;;;;;;;20.57;12.87;;;22.80;49.90;;;;;;4988757;28;20193;-85
2021/05/28 12:34:16;;;;;;;20.97;13.57;;;22.80;50.00;;;;;;4989001;28;20424;-85
2021/05/28 12:36:49;;;;;;;20.43;13.20;;;22.80;49.90;;;;;;4989997;28;20412;-85
2021/05/28 12:39:20;;;;;;;21.33;13.53;;;22.80;49.90;;;;;;4987975;28;20421;-85
2021/05/28 12:41:47;;;;;;;17.43;12.17;;;22.80;49.90;;;;;;4988564;28;20912;-83
2021/05/28 12:44:18;;;;;;;19.23;12.00;;;22.80;49.90;;;;;;4988092;28;20440;-83
2021/05/28 12:47:09;;;;;;;18.40;12.50;;;22.80;49.90;;;;;;4988145;28;20830;-85
2021/05/28 12:49:39;;;;;;;20.97;12.17;;;22.80;49.90;;;;;;4987865;28;20444;-85
2021/05/28 12:52:17;;;;;;;17.83;11.67;;;22.80;50.00;;;;;;4989185;28;20453;-85
2021/05/28 12:55:03;;;;;;;16.03;11.47;;;22.80;50.00;;;;;;4989724;28;20409;-85
2021/05/28 12:57:29;;;;;;;16.00;11.80;;;22.80;50.00;;;;;;4988887;28;20397;-85
2021/05/28 13:00:00;;;;;;;16.90;12.00;;;22.80;50.00;;;;;;4988322;28;20517;-85
2021/05/28 13:02:28;;;;;;;16.13;11.00;;;22.80;50.00;;;;;;4989170;28;20174;-85